sensor_id;sensor_type;location;lat;lon;timestamp;temperature;humidity
36458;DHT22;22480;50.546;12.292;2024-03-08T00:00:09;-3.40;99.90
36458;DHT22;22480;50.546;12.292;2024-03-08T00:02:39;-3.40;99.90
36458;DHT22;22480;50.546;12.292;2024-03-08T00:05:06;-3.40;99.90
36458;DHT22;22480;50.546;12.292;2024-03-08T00:07:37;-3.40;99.90
36458;DHT22;22480;50.546;12.292;2024-03-08T00:10:07;-3.40;99.90
36458;DHT22;22480;50.546;12.292;2024-03-08T00:12:40;-3.60;99.90
36458;DHT22;22480;50.546;12.292;2024-03-08T00:15:14;-3.80;99.90
36458;DHT22;22480;50.546;12.292;2024-03-08T00:17:40;-3.90;99.90
36458;DHT22;22480;50.546;12.292;2024-03-08T00:20:06;-4.00;99.90
36458;DHT22;22480;50.546;12.292;2024-03-08T00:22:37;-4.10;99.90
36458;DHT22;22480;50.546;12.292;2024-03-08T00:25:04;-4.00;99.90
36458;DHT22;22480;50.546;12.292;2024-03-08T00:27:30;-4.00;99.90
36458;DHT22;22480;50.546;12.292;2024-03-08T00:29:57;-4.00;99.90
36458;DHT22;22480;50.546;12.292;2024-03-08T00:32:23;-3.80;99.90
36458;DHT22;22480;50.546;12.292;2024-03-08T00:34:56;-3.80;99.90
36458;DHT22;22480;50.546;12.292;2024-03-08T00:37:21;-3.70;99.90
36458;DHT22;22480;50.546;12.292;2024-03-08T00:39:50;-3.90;99.90
36458;DHT22;22480;50.546;12.292;2024-03-08T00:42:16;-4.10;99.90
36458;DHT22;22480;50.546;12.292;2024-03-08T00:44:42;-4.10;99.90
36458;DHT22;22480;50.546;12.292;2024-03-08T00:47:08;-4.00;99.90
36458;DHT22;22480;50.546;12.292;2024-03-08T00:49:33;-3.90;99.90
36458;DHT22;22480;50.546;12.292;2024-03-08T00:51:59;-4.10;99.90
36458;DHT22;22480;50.546;12.292;2024-03-08T00:54:25;-4.10;99.90
36458;DHT22;22480;50.546;12.292;2024-03-08T00:56:51;-4.10;99.90
36458;DHT22;22480;50.546;12.292;2024-03-08T00:59:17;-4.20;99.90
36458;DHT22;22480;50.546;12.292;2024-03-08T01:01:42;-4.20;99.90
36458;DHT22;22480;50.546;12.292;2024-03-08T01:04:10;-4.30;99.90
36458;DHT22;22480;50.546;12.292;2024-03-08T01:06:36;-4.30;99.90
36458;DHT22;22480;50.546;12.292;2024-03-08T01:09:02;-4.20;99.90
36458;DHT22;22480;50.546;12.292;2024-03-08T01:11:28;-4.20;99.90
36458;DHT22;22480;50.546;12.292;2024-03-08T01:13:54;-4.20;99.90
36458;DHT22;22480;50.546;12.292;2024-03-08T01:16:20;-4.00;99.90
36458;DHT22;22480;50.546;12.292;2024-03-08T01:18:47;-3.80;99.90
36458;DHT22;22480;50.546;12.292;2024-03-08T01:21:12;-3.70;99.90
36458;DHT22;22480;50.546;12.292;2024-03-08T01:23:57;-3.70;99.90
36458;DHT22;22480;50.546;12.292;2024-03-08T01:26:22;-3.70;99.90
36458;DHT22;22480;50.546;12.292;2024-03-08T01:28:49;-3.70;99.90
36458;DHT22;22480;50.546;12.292;2024-03-08T01:31:15;-3.60;99.90
36458;DHT22;22480;50.546;12.292;2024-03-08T01:33:41;-3.50;99.90
36458;DHT22;22480;50.546;12.292;2024-03-08T01:36:07;-3.50;99.90
36458;DHT22;22480;50.546;12.292;2024-03-08T01:38:32;-3.60;99.90
36458;DHT22;22480;50.546;12.292;2024-03-08T01:40:59;-3.60;99.90
36458;DHT22;22480;50.546;12.292;2024-03-08T01:43:29;-3.50;99.90
36458;DHT22;22480;50.546;12.292;2024-03-08T01:45:57;-3.50;99.90
36458;DHT22;22480;50.546;12.292;2024-03-08T01:48:24;-3.50;99.90
36458;DHT22;22480;50.546;12.292;2024-03-08T01:50:50;-3.40;99.90
36458;DHT22;22480;50.546;12.292;2024-03-08T01:53:18;-3.30;99.90
36458;DHT22;22480;50.546;12.292;2024-03-08T01:55:46;-3.20;99.90
36458;DHT22;22480;50.546;12.292;2024-03-08T01:58:12;-3.10;99.90
36458;DHT22;22480;50.546;12.292;2024-03-08T02:00:43;-3.10;99.90
36458;DHT22;22480;50.546;12.292;2024-03-08T02:03:09;-3.20;99.90
36458;DHT22;22480;50.546;12.292;2024-03-08T02:05:36;-3.20;99.90
36458;DHT22;22480;50.546;12.292;2024-03-08T02:08:04;-3.20;99.90
36458;DHT22;22480;50.546;12.292;2024-03-08T02:10:33;-3.30;99.90
36458;DHT22;22480;50.546;12.292;2024-03-08T02:13:02;-3.30;99.90
36458;DHT22;22480;50.546;12.292;2024-03-08T02:18:15;-3.50;99.90
36458;DHT22;22480;50.546;12.292;2024-03-08T02:20:43;-3.80;99.90
36458;DHT22;22480;50.546;12.292;2024-03-08T02:23:09;-3.90;99.90
36458;DHT22;22480;50.546;12.292;2024-03-08T02:25:35;-3.90;99.90
36458;DHT22;22480;50.546;12.292;2024-03-08T02:28:01;-4.00;99.90
36458;DHT22;22480;50.546;12.292;2024-03-08T02:30:26;-4.10;99.90
36458;DHT22;22480;50.546;12.292;2024-03-08T02:32:55;-4.00;99.90
36458;DHT22;22480;50.546;12.292;2024-03-08T02:35:21;-4.00;99.90
36458;DHT22;22480;50.546;12.292;2024-03-08T02:37:47;-3.90;99.90
36458;DHT22;22480;50.546;12.292;2024-03-08T02:40:13;-3.80;99.90
36458;DHT22;22480;50.546;12.292;2024-03-08T02:42:39;-3.80;99.90
36458;DHT22;22480;50.546;12.292;2024-03-08T02:45:05;-3.70;99.90
36458;DHT22;22480;50.546;12.292;2024-03-08T02:47:32;-3.80;99.90
36458;DHT22;22480;50.546;12.292;2024-03-08T02:49:57;-3.90;99.90
36458;DHT22;22480;50.546;12.292;2024-03-08T02:52:23;-3.90;99.90
36458;DHT22;22480;50.546;12.292;2024-03-08T02:54:49;-4.00;99.90
36458;DHT22;22480;50.546;12.292;2024-03-08T02:57:15;-4.00;99.90
36458;DHT22;22480;50.546;12.292;2024-03-08T02:59:42;-3.90;99.90
36458;DHT22;22480;50.546;12.292;2024-03-08T03:02:07;-3.90;99.90
36458;DHT22;22480;50.546;12.292;2024-03-08T03:04:34;-3.70;99.90
36458;DHT22;22480;50.546;12.292;2024-03-08T03:07:00;-3.70;99.90
36458;DHT22;22480;50.546;12.292;2024-03-08T03:09:26;-3.60;99.90
36458;DHT22;22480;50.546;12.292;2024-03-08T03:11:56;-3.60;99.90
36458;DHT22;22480;50.546;12.292;2024-03-08T03:14:22;-3.60;99.90
36458;DHT22;22480;50.546;12.292;2024-03-08T03:16:48;-3.60;99.90
36458;DHT22;22480;50.546;12.292;2024-03-08T03:19:13;-3.50;99.90
36458;DHT22;22480;50.546;12.292;2024-03-08T03:21:40;-3.50;99.90
36458;DHT22;22480;50.546;12.292;2024-03-08T03:24:09;-3.50;99.90
36458;DHT22;22480;50.546;12.292;2024-03-08T03:26:40;-3.50;99.90
36458;DHT22;22480;50.546;12.292;2024-03-08T03:29:06;-3.50;99.90
36458;DHT22;22480;50.546;12.292;2024-03-08T03:31:34;-3.50;99.90
36458;DHT22;22480;50.546;12.292;2024-03-08T03:34:00;-3.40;99.90
36458;DHT22;22480;50.546;12.292;2024-03-08T03:36:32;-3.40;99.90
36458;DHT22;22480;50.546;12.292;2024-03-08T03:38:58;-3.40;99.90
36458;DHT22;22480;50.546;12.292;2024-03-08T03:41:36;-3.50;99.90
36458;DHT22;22480;50.546;12.292;2024-03-08T03:44:02;-3.60;99.90
36458;DHT22;22480;50.546;12.292;2024-03-08T03:46:27;-3.70;99.90
36458;DHT22;22480;50.546;12.292;2024-03-08T03:48:56;-3.90;99.90
36458;DHT22;22480;50.546;12.292;2024-03-08T03:51:22;-3.90;99.90
36458;DHT22;22480;50.546;12.292;2024-03-08T03:53:48;-3.90;99.90
36458;DHT22;22480;50.546;12.292;2024-03-08T03:56:14;-4.00;99.90
36458;DHT22;22480;50.546;12.292;2024-03-08T03:58:39;-4.20;99.90
36458;DHT22;22480;50.546;12.292;2024-03-08T04:01:05;-4.30;99.90
36458;DHT22;22480;50.546;12.292;2024-03-08T04:03:31;-4.50;99.90
36458;DHT22;22480;50.546;12.292;2024-03-08T04:05:57;-4.70;99.90
36458;DHT22;22480;50.546;12.292;2024-03-08T04:08:22;-4.70;99.90
36458;DHT22;22480;50.546;12.292;2024-03-08T04:10:51;-4.60;99.90
36458;DHT22;22480;50.546;12.292;2024-03-08T04:13:17;-4.50;99.90
36458;DHT22;22480;50.546;12.292;2024-03-08T04:15:43;-4.40;99.90
36458;DHT22;22480;50.546;12.292;2024-03-08T04:18:13;-4.30;99.90
36458;DHT22;22480;50.546;12.292;2024-03-08T04:20:39;-4.20;99.90
36458;DHT22;22480;50.546;12.292;2024-03-08T04:23:06;-4.10;99.90
36458;DHT22;22480;50.546;12.292;2024-03-08T04:25:32;-4.00;99.90
36458;DHT22;22480;50.546;12.292;2024-03-08T04:27:57;-4.00;99.90
36458;DHT22;22480;50.546;12.292;2024-03-08T04:30:23;-4.00;99.90
36458;DHT22;22480;50.546;12.292;2024-03-08T04:32:50;-4.10;99.90
36458;DHT22;22480;50.546;12.292;2024-03-08T04:35:16;-4.10;99.90
36458;DHT22;22480;50.546;12.292;2024-03-08T04:37:42;-4.20;99.90
36458;DHT22;22480;50.546;12.292;2024-03-08T04:40:07;-4.10;99.90
36458;DHT22;22480;50.546;12.292;2024-03-08T04:42:33;-4.10;99.90
36458;DHT22;22480;50.546;12.292;2024-03-08T04:45:00;-4.00;99.90
36458;DHT22;22480;50.546;12.292;2024-03-08T04:47:26;-3.90;99.90
36458;DHT22;22480;50.546;12.292;2024-03-08T04:49:51;-3.80;99.90
36458;DHT22;22480;50.546;12.292;2024-03-08T04:52:17;-3.70;99.90
36458;DHT22;22480;50.546;12.292;2024-03-08T04:54:43;-3.70;99.90
36458;DHT22;22480;50.546;12.292;2024-03-08T04:57:10;-3.60;99.90
36458;DHT22;22480;50.546;12.292;2024-03-08T04:59:36;-3.60;99.90
36458;DHT22;22480;50.546;12.292;2024-03-08T05:02:02;-3.50;99.90
36458;DHT22;22480;50.546;12.292;2024-03-08T05:04:28;-3.40;99.90
36458;DHT22;22480;50.546;12.292;2024-03-08T05:06:55;-3.30;99.90
36458;DHT22;22480;50.546;12.292;2024-03-08T05:09:21;-3.20;99.90
36458;DHT22;22480;50.546;12.292;2024-03-08T05:11:47;-3.10;99.90
36458;DHT22;22480;50.546;12.292;2024-03-08T05:14:14;-3.00;99.90
36458;DHT22;22480;50.546;12.292;2024-03-08T05:16:46;-3.00;99.90
36458;DHT22;22480;50.546;12.292;2024-03-08T05:19:19;-3.00;99.90
36458;DHT22;22480;50.546;12.292;2024-03-08T05:21:45;-3.00;99.90
36458;DHT22;22480;50.546;12.292;2024-03-08T05:24:11;-3.10;99.90
36458;DHT22;22480;50.546;12.292;2024-03-08T05:26:38;-3.10;99.90
36458;DHT22;22480;50.546;12.292;2024-03-08T05:29:04;-3.20;99.90
36458;DHT22;22480;50.546;12.292;2024-03-08T05:31:38;-3.30;99.90
36458;DHT22;22480;50.546;12.292;2024-03-08T05:34:10;-3.30;99.90
36458;DHT22;22480;50.546;12.292;2024-03-08T05:36:35;-3.20;99.90
36458;DHT22;22480;50.546;12.292;2024-03-08T05:39:01;-3.10;99.90
36458;DHT22;22480;50.546;12.292;2024-03-08T05:41:27;-3.00;99.90
36458;DHT22;22480;50.546;12.292;2024-03-08T05:43:52;-2.90;99.90
36458;DHT22;22480;50.546;12.292;2024-03-08T05:46:19;-3.00;99.90
36458;DHT22;22480;50.546;12.292;2024-03-08T05:48:44;-3.00;99.90
36458;DHT22;22480;50.546;12.292;2024-03-08T05:51:10;-3.10;99.90
36458;DHT22;22480;50.546;12.292;2024-03-08T05:53:37;-3.20;99.90
36458;DHT22;22480;50.546;12.292;2024-03-08T05:56:03;-3.30;99.90
36458;DHT22;22480;50.546;12.292;2024-03-08T05:58:29;-3.40;99.90
36458;DHT22;22480;50.546;12.292;2024-03-08T06:00:57;-3.30;99.90
36458;DHT22;22480;50.546;12.292;2024-03-08T06:03:23;-3.40;99.90
36458;DHT22;22480;50.546;12.292;2024-03-08T06:05:49;-3.30;99.90
36458;DHT22;22480;50.546;12.292;2024-03-08T06:08:15;-3.30;99.90
36458;DHT22;22480;50.546;12.292;2024-03-08T06:10:41;-3.40;99.90
36458;DHT22;22480;50.546;12.292;2024-03-08T06:13:06;-3.30;99.90
36458;DHT22;22480;50.546;12.292;2024-03-08T06:15:32;-3.10;99.90
36458;DHT22;22480;50.546;12.292;2024-03-08T06:17:58;-2.90;99.90
36458;DHT22;22480;50.546;12.292;2024-03-08T06:20:24;-2.50;99.90
36458;DHT22;22480;50.546;12.292;2024-03-08T06:22:52;-2.30;99.90
36458;DHT22;22480;50.546;12.292;2024-03-08T06:25:18;-2.00;99.90
36458;DHT22;22480;50.546;12.292;2024-03-08T06:27:44;-1.80;99.90
36458;DHT22;22480;50.546;12.292;2024-03-08T06:30:11;-1.60;99.90
36458;DHT22;22480;50.546;12.292;2024-03-08T06:32:37;-1.50;99.90
36458;DHT22;22480;50.546;12.292;2024-03-08T06:35:06;-1.30;99.90
36458;DHT22;22480;50.546;12.292;2024-03-08T06:37:33;-1.10;99.90
36458;DHT22;22480;50.546;12.292;2024-03-08T06:39:58;-0.90;99.90
36458;DHT22;22480;50.546;12.292;2024-03-08T06:42:24;-0.80;99.90
36458;DHT22;22480;50.546;12.292;2024-03-08T06:44:50;-0.60;99.90
36458;DHT22;22480;50.546;12.292;2024-03-08T06:47:16;-0.50;99.90
36458;DHT22;22480;50.546;12.292;2024-03-08T06:49:44;-0.30;99.90
36458;DHT22;22480;50.546;12.292;2024-03-08T06:52:10;-0.20;99.90
36458;DHT22;22480;50.546;12.292;2024-03-08T06:54:37;-0.10;99.90
36458;DHT22;22480;50.546;12.292;2024-03-08T06:57:06;0.00;99.90
36458;DHT22;22480;50.546;12.292;2024-03-08T06:59:32;0.10;99.90
36458;DHT22;22480;50.546;12.292;2024-03-08T07:01:58;0.20;99.90
36458;DHT22;22480;50.546;12.292;2024-03-08T07:04:25;0.20;99.90
36458;DHT22;22480;50.546;12.292;2024-03-08T07:06:58;0.20;99.90
36458;DHT22;22480;50.546;12.292;2024-03-08T07:09:24;0.30;99.90
36458;DHT22;22480;50.546;12.292;2024-03-08T07:11:50;0.40;99.90
36458;DHT22;22480;50.546;12.292;2024-03-08T07:14:23;0.50;99.90
36458;DHT22;22480;50.546;12.292;2024-03-08T07:16:50;0.60;99.90
36458;DHT22;22480;50.546;12.292;2024-03-08T07:19:16;0.70;99.90
36458;DHT22;22480;50.546;12.292;2024-03-08T07:21:45;0.70;99.90
36458;DHT22;22480;50.546;12.292;2024-03-08T07:24:13;0.90;99.90
36458;DHT22;22480;50.546;12.292;2024-03-08T07:26:44;1.10;99.90
36458;DHT22;22480;50.546;12.292;2024-03-08T07:29:09;1.30;99.90
36458;DHT22;22480;50.546;12.292;2024-03-08T07:31:35;1.50;99.90
36458;DHT22;22480;50.546;12.292;2024-03-08T07:34:16;1.70;99.90
36458;DHT22;22480;50.546;12.292;2024-03-08T07:36:42;2.00;99.90
36458;DHT22;22480;50.546;12.292;2024-03-08T07:39:08;2.20;99.90
36458;DHT22;22480;50.546;12.292;2024-03-08T07:41:40;2.30;99.90
36458;DHT22;22480;50.546;12.292;2024-03-08T07:44:07;2.40;99.90
36458;DHT22;22480;50.546;12.292;2024-03-08T07:46:32;2.50;99.90
36458;DHT22;22480;50.546;12.292;2024-03-08T07:48:59;2.50;99.90
36458;DHT22;22480;50.546;12.292;2024-03-08T07:51:25;2.60;99.90
36458;DHT22;22480;50.546;12.292;2024-03-08T07:53:51;2.70;99.90
36458;DHT22;22480;50.546;12.292;2024-03-08T07:56:17;2.70;99.90
36458;DHT22;22480;50.546;12.292;2024-03-08T07:58:44;2.70;99.90
36458;DHT22;22480;50.546;12.292;2024-03-08T08:01:19;2.70;99.90
36458;DHT22;22480;50.546;12.292;2024-03-08T08:03:46;2.80;99.90
36458;DHT22;22480;50.546;12.292;2024-03-08T08:06:15;2.70;99.90
36458;DHT22;22480;50.546;12.292;2024-03-08T08:08:44;2.70;99.90
36458;DHT22;22480;50.546;12.292;2024-03-08T08:11:10;2.60;99.90
36458;DHT22;22480;50.546;12.292;2024-03-08T08:13:36;2.60;99.90
36458;DHT22;22480;50.546;12.292;2024-03-08T08:16:04;2.40;99.90
36458;DHT22;22480;50.546;12.292;2024-03-08T08:18:32;2.40;99.90
36458;DHT22;22480;50.546;12.292;2024-03-08T08:20:58;2.40;99.90
36458;DHT22;22480;50.546;12.292;2024-03-08T08:23:25;2.40;99.90
36458;DHT22;22480;50.546;12.292;2024-03-08T08:25:51;2.30;99.90
36458;DHT22;22480;50.546;12.292;2024-03-08T08:28:17;2.30;99.90
36458;DHT22;22480;50.546;12.292;2024-03-08T08:30:46;2.30;99.90
36458;DHT22;22480;50.546;12.292;2024-03-08T08:33:12;2.30;99.90
36458;DHT22;22480;50.546;12.292;2024-03-08T08:35:41;2.30;99.90
36458;DHT22;22480;50.546;12.292;2024-03-08T08:38:06;2.40;99.90
36458;DHT22;22480;50.546;12.292;2024-03-08T08:40:35;2.40;99.90
36458;DHT22;22480;50.546;12.292;2024-03-08T08:43:02;2.50;99.90
36458;DHT22;22480;50.546;12.292;2024-03-08T08:45:30;2.60;99.90
36458;DHT22;22480;50.546;12.292;2024-03-08T08:47:56;2.70;99.90
36458;DHT22;22480;50.546;12.292;2024-03-08T08:50:23;2.80;99.90
36458;DHT22;22480;50.546;12.292;2024-03-08T08:52:49;2.90;99.90
36458;DHT22;22480;50.546;12.292;2024-03-08T08:55:15;3.00;99.90
36458;DHT22;22480;50.546;12.292;2024-03-08T08:57:41;3.10;99.90
36458;DHT22;22480;50.546;12.292;2024-03-08T09:00:07;3.20;99.90
36458;DHT22;22480;50.546;12.292;2024-03-08T09:02:34;3.30;99.90
36458;DHT22;22480;50.546;12.292;2024-03-08T09:05:00;3.40;99.90
36458;DHT22;22480;50.546;12.292;2024-03-08T09:07:29;3.50;99.90
36458;DHT22;22480;50.546;12.292;2024-03-08T09:09:55;3.60;99.90
36458;DHT22;22480;50.546;12.292;2024-03-08T09:12:24;3.70;99.90
36458;DHT22;22480;50.546;12.292;2024-03-08T09:14:49;3.80;99.90
36458;DHT22;22480;50.546;12.292;2024-03-08T09:17:15;4.30;99.90
36458;DHT22;22480;50.546;12.292;2024-03-08T09:19:46;5.50;99.90
36458;DHT22;22480;50.546;12.292;2024-03-08T09:22:13;6.80;99.90
36458;DHT22;22480;50.546;12.292;2024-03-08T09:24:39;7.70;99.90
36458;DHT22;22480;50.546;12.292;2024-03-08T09:27:05;8.60;99.90
36458;DHT22;22480;50.546;12.292;2024-03-08T09:29:30;9.30;96.30
36458;DHT22;22480;50.546;12.292;2024-03-08T09:31:56;10.00;92.30
36458;DHT22;22480;50.546;12.292;2024-03-08T09:34:22;10.40;91.10
36458;DHT22;22480;50.546;12.292;2024-03-08T09:36:48;10.80;88.90
36458;DHT22;22480;50.546;12.292;2024-03-08T09:39:13;11.20;88.80
36458;DHT22;22480;50.546;12.292;2024-03-08T09:41:43;11.70;85.30
36458;DHT22;22480;50.546;12.292;2024-03-08T09:44:09;11.90;84.00
36458;DHT22;22480;50.546;12.292;2024-03-08T09:46:35;12.30;83.10
36458;DHT22;22480;50.546;12.292;2024-03-08T09:49:01;12.80;80.40
36458;DHT22;22480;50.546;12.292;2024-03-08T09:51:28;13.30;80.00
36458;DHT22;22480;50.546;12.292;2024-03-08T09:53:54;13.70;79.20
36458;DHT22;22480;50.546;12.292;2024-03-08T09:56:22;14.30;72.00
36458;DHT22;22480;50.546;12.292;2024-03-08T09:58:49;14.50;69.10
36458;DHT22;22480;50.546;12.292;2024-03-08T10:01:41;14.70;69.50
36458;DHT22;22480;50.546;12.292;2024-03-08T10:04:07;14.90;68.20
36458;DHT22;22480;50.546;12.292;2024-03-08T10:06:33;15.30;66.80
36458;DHT22;22480;50.546;12.292;2024-03-08T10:08:58;15.10;65.80
36458;DHT22;22480;50.546;12.292;2024-03-08T10:11:25;15.60;69.80
36458;DHT22;22480;50.546;12.292;2024-03-08T10:13:52;16.20;62.00
36458;DHT22;22480;50.546;12.292;2024-03-08T10:16:18;16.30;64.00
36458;DHT22;22480;50.546;12.292;2024-03-08T10:18:45;16.40;60.10
36458;DHT22;22480;50.546;12.292;2024-03-08T10:21:11;16.20;59.50
36458;DHT22;22480;50.546;12.292;2024-03-08T10:23:40;16.70;61.00
36458;DHT22;22480;50.546;12.292;2024-03-08T10:26:17;16.80;58.20
36458;DHT22;22480;50.546;12.292;2024-03-08T10:28:47;16.90;56.30
36458;DHT22;22480;50.546;12.292;2024-03-08T10:31:17;16.90;56.10
36458;DHT22;22480;50.546;12.292;2024-03-08T10:33:43;16.50;57.30
36458;DHT22;22480;50.546;12.292;2024-03-08T10:36:10;16.60;56.30
36458;DHT22;22480;50.546;12.292;2024-03-08T10:38:38;16.70;55.30
36458;DHT22;22480;50.546;12.292;2024-03-08T10:41:10;16.90;55.10
36458;DHT22;22480;50.546;12.292;2024-03-08T10:47:18;17.00;55.10
36458;DHT22;22480;50.546;12.292;2024-03-08T10:49:50;17.10;55.40
36458;DHT22;22480;50.546;12.292;2024-03-08T10:52:17;17.30;53.20
36458;DHT22;22480;50.546;12.292;2024-03-08T10:54:45;16.90;52.40
36458;DHT22;22480;50.546;12.292;2024-03-08T10:57:13;16.40;55.30
36458;DHT22;22480;50.546;12.292;2024-03-08T10:59:40;16.90;56.30
36458;DHT22;22480;50.546;12.292;2024-03-08T11:02:11;17.30;54.70
36458;DHT22;22480;50.546;12.292;2024-03-08T11:04:37;18.00;54.30
36458;DHT22;22480;50.546;12.292;2024-03-08T11:07:03;18.10;50.30
36458;DHT22;22480;50.546;12.292;2024-03-08T11:09:36;16.90;55.10
36458;DHT22;22480;50.546;12.292;2024-03-08T11:12:25;17.30;54.50
36458;DHT22;22480;50.546;12.292;2024-03-08T11:14:55;18.30;52.50
36458;DHT22;22480;50.546;12.292;2024-03-08T11:17:25;19.00;51.80
36458;DHT22;22480;50.546;12.292;2024-03-08T11:19:51;19.20;51.50
36458;DHT22;22480;50.546;12.292;2024-03-08T11:22:27;19.50;50.40
36458;DHT22;22480;50.546;12.292;2024-03-08T11:24:53;20.00;51.30
36458;DHT22;22480;50.546;12.292;2024-03-08T11:27:19;20.40;49.30
36458;DHT22;22480;50.546;12.292;2024-03-08T11:30:05;20.40;48.50
36458;DHT22;22480;50.546;12.292;2024-03-08T11:32:38;18.70;49.30
36458;DHT22;22480;50.546;12.292;2024-03-08T11:35:07;18.90;49.70
36458;DHT22;22480;50.546;12.292;2024-03-08T11:37:34;19.20;50.20
36458;DHT22;22480;50.546;12.292;2024-03-08T11:40:01;19.60;48.10
36458;DHT22;22480;50.546;12.292;2024-03-08T11:42:30;19.00;49.70
36458;DHT22;22480;50.546;12.292;2024-03-08T11:44:56;17.70;50.90
36458;DHT22;22480;50.546;12.292;2024-03-08T11:47:22;17.80;54.50
36458;DHT22;22480;50.546;12.292;2024-03-08T11:49:48;18.70;50.40
36458;DHT22;22480;50.546;12.292;2024-03-08T11:52:15;19.00;50.20
36458;DHT22;22480;50.546;12.292;2024-03-08T11:54:42;19.30;47.80
36458;DHT22;22480;50.546;12.292;2024-03-08T11:57:09;19.80;49.00
36458;DHT22;22480;50.546;12.292;2024-03-08T11:59:36;20.00;49.30
36458;DHT22;22480;50.546;12.292;2024-03-08T12:02:03;20.00;45.60
36458;DHT22;22480;50.546;12.292;2024-03-08T12:04:30;19.40;45.40
36458;DHT22;22480;50.546;12.292;2024-03-08T12:06:59;19.30;45.40
36458;DHT22;22480;50.546;12.292;2024-03-08T12:09:26;18.60;46.30
36458;DHT22;22480;50.546;12.292;2024-03-08T12:11:52;18.60;46.90
36458;DHT22;22480;50.546;12.292;2024-03-08T12:14:18;18.70;47.50
36458;DHT22;22480;50.546;12.292;2024-03-08T12:16:44;19.00;46.80
36458;DHT22;22480;50.546;12.292;2024-03-08T12:19:10;18.90;46.70
36458;DHT22;22480;50.546;12.292;2024-03-08T12:21:36;18.90;46.30
36458;DHT22;22480;50.546;12.292;2024-03-08T12:24:06;18.30;47.10
36458;DHT22;22480;50.546;12.292;2024-03-08T12:26:36;17.90;49.00
36458;DHT22;22480;50.546;12.292;2024-03-08T12:29:25;17.90;47.70
36458;DHT22;22480;50.546;12.292;2024-03-08T12:31:59;18.20;47.50
36458;DHT22;22480;50.546;12.292;2024-03-08T12:34:26;18.20;46.80
36458;DHT22;22480;50.546;12.292;2024-03-08T12:36:58;18.10;47.30
36458;DHT22;22480;50.546;12.292;2024-03-08T12:39:24;18.00;48.60
36458;DHT22;22480;50.546;12.292;2024-03-08T12:41:53;18.10;47.90
36458;DHT22;22480;50.546;12.292;2024-03-08T12:44:20;18.30;48.40
36458;DHT22;22480;50.546;12.292;2024-03-08T12:46:47;18.70;47.30
36458;DHT22;22480;50.546;12.292;2024-03-08T12:49:14;19.00;47.20
36458;DHT22;22480;50.546;12.292;2024-03-08T12:51:45;18.80;47.40
36458;DHT22;22480;50.546;12.292;2024-03-08T12:54:11;18.30;48.50
36458;DHT22;22480;50.546;12.292;2024-03-08T12:56:37;18.40;49.10
36458;DHT22;22480;50.546;12.292;2024-03-08T12:59:04;17.90;48.30
36458;DHT22;22480;50.546;12.292;2024-03-08T13:01:31;17.90;48.50
36458;DHT22;22480;50.546;12.292;2024-03-08T13:04:03;17.80;50.90
36458;DHT22;22480;50.546;12.292;2024-03-08T13:06:29;17.70;49.20
36458;DHT22;22480;50.546;12.292;2024-03-08T13:08:56;17.50;49.30
36458;DHT22;22480;50.546;12.292;2024-03-08T13:11:24;16.90;50.40
36458;DHT22;22480;50.546;12.292;2024-03-08T13:13:50;16.30;51.50
36458;DHT22;22480;50.546;12.292;2024-03-08T13:16:15;16.40;53.50
36458;DHT22;22480;50.546;12.292;2024-03-08T13:18:42;16.50;51.80
36458;DHT22;22480;50.546;12.292;2024-03-08T13:21:09;16.60;51.70
36458;DHT22;22480;50.546;12.292;2024-03-08T13:23:37;17.00;52.10
36458;DHT22;22480;50.546;12.292;2024-03-08T13:26:06;17.10;50.80
36458;DHT22;22480;50.546;12.292;2024-03-08T13:28:32;17.10;51.10
36458;DHT22;22480;50.546;12.292;2024-03-08T13:31:03;17.00;50.80
36458;DHT22;22480;50.546;12.292;2024-03-08T13:33:34;17.00;51.70
36458;DHT22;22480;50.546;12.292;2024-03-08T13:36:08;16.80;51.70
36458;DHT22;22480;50.546;12.292;2024-03-08T13:38:43;16.70;53.30
36458;DHT22;22480;50.546;12.292;2024-03-08T13:41:10;17.00;52.40
36458;DHT22;22480;50.546;12.292;2024-03-08T13:43:37;17.10;52.10
36458;DHT22;22480;50.546;12.292;2024-03-08T13:46:04;17.20;52.10
36458;DHT22;22480;50.546;12.292;2024-03-08T13:48:30;17.00;52.90
36458;DHT22;22480;50.546;12.292;2024-03-08T13:50:57;17.20;52.20
36458;DHT22;22480;50.546;12.292;2024-03-08T13:53:22;17.20;52.30
36458;DHT22;22480;50.546;12.292;2024-03-08T13:55:49;17.20;51.10
36458;DHT22;22480;50.546;12.292;2024-03-08T13:58:16;17.20;51.80
36458;DHT22;22480;50.546;12.292;2024-03-08T14:00:41;17.00;51.90
36458;DHT22;22480;50.546;12.292;2024-03-08T14:03:10;17.30;52.10
36458;DHT22;22480;50.546;12.292;2024-03-08T14:05:41;17.50;49.20
36458;DHT22;22480;50.546;12.292;2024-03-08T14:08:08;17.20;49.70
36458;DHT22;22480;50.546;12.292;2024-03-08T14:10:35;17.00;50.30
36458;DHT22;22480;50.546;12.292;2024-03-08T14:13:03;17.00;50.60
36458;DHT22;22480;50.546;12.292;2024-03-08T14:15:33;16.90;50.90
36458;DHT22;22480;50.546;12.292;2024-03-08T14:18:06;16.80;51.80
36458;DHT22;22480;50.546;12.292;2024-03-08T14:20:32;16.90;51.90
36458;DHT22;22480;50.546;12.292;2024-03-08T14:22:57;16.60;52.20
36458;DHT22;22480;50.546;12.292;2024-03-08T14:25:24;16.50;51.60
36458;DHT22;22480;50.546;12.292;2024-03-08T14:27:51;16.80;51.00
36458;DHT22;22480;50.546;12.292;2024-03-08T14:30:20;16.70;51.30
36458;DHT22;22480;50.546;12.292;2024-03-08T14:33:06;16.40;53.40
36458;DHT22;22480;50.546;12.292;2024-03-08T14:35:35;16.70;52.40
36458;DHT22;22480;50.546;12.292;2024-03-08T14:38:02;16.70;51.60
36458;DHT22;22480;50.546;12.292;2024-03-08T14:40:27;16.30;54.00
36458;DHT22;22480;50.546;12.292;2024-03-08T14:42:53;16.50;53.40
36458;DHT22;22480;50.546;12.292;2024-03-08T14:45:19;16.40;53.70
36458;DHT22;22480;50.546;12.292;2024-03-08T14:47:48;15.80;53.80
36458;DHT22;22480;50.546;12.292;2024-03-08T14:50:20;15.50;54.70
36458;DHT22;22480;50.546;12.292;2024-03-08T14:52:48;15.10;55.20
36458;DHT22;22480;50.546;12.292;2024-03-08T14:55:17;14.90;54.80
36458;DHT22;22480;50.546;12.292;2024-03-08T14:57:45;14.60;55.60
36458;DHT22;22480;50.546;12.292;2024-03-08T15:00:12;14.30;56.60
36458;DHT22;22480;50.546;12.292;2024-03-08T15:02:55;13.90;57.10
36458;DHT22;22480;50.546;12.292;2024-03-08T15:05:22;13.50;58.20
36458;DHT22;22480;50.546;12.292;2024-03-08T15:07:58;13.40;59.00
36458;DHT22;22480;50.546;12.292;2024-03-08T15:10:26;13.30;58.90
36458;DHT22;22480;50.546;12.292;2024-03-08T15:12:54;13.10;59.30
36458;DHT22;22480;50.546;12.292;2024-03-08T15:15:21;13.10;61.20
36458;DHT22;22480;50.546;12.292;2024-03-08T15:17:50;13.00;60.80
36458;DHT22;22480;50.546;12.292;2024-03-08T15:20:16;12.80;60.80
36458;DHT22;22480;50.546;12.292;2024-03-08T15:22:46;12.70;61.10
36458;DHT22;22480;50.546;12.292;2024-03-08T15:25:12;12.70;62.00